sensor_id;sensor_type;location;lat;lon;timestamp;P1;durP1;ratioP1;P2;durP2;ratioP2
5841;SDS011;2947;52.276;9.946;2023-12-20T00:01:37;7.60;;;4.70;;
5841;SDS011;2947;52.276;9.946;2023-12-20T00:04:03;10.07;;;5.40;;
5841;SDS011;2947;52.276;9.946;2023-12-20T00:06:31;8.93;;;5.57;;
5841;SDS011;2947;52.276;9.946;2023-12-20T00:08:56;10.03;;;6.33;;
5841;SDS011;2947;52.276;9.946;2023-12-20T00:11:25;11.23;;;6.60;;
5841;SDS011;2947;52.276;9.946;2023-12-20T00:13:50;10.80;;;6.73;;
5841;SDS011;2947;52.276;9.946;2023-12-20T00:16:16;12.50;;;6.60;;
5841;SDS011;2947;52.276;9.946;2023-12-20T00:18:42;11.17;;;7.13;;
5841;SDS011;2947;52.276;9.946;2023-12-20T00:21:08;12.40;;;6.47;;
5841;SDS011;2947;52.276;9.946;2023-12-20T00:23:33;11.23;;;6.57;;
5841;SDS011;2947;52.276;9.946;2023-12-20T00:25:59;12.37;;;6.77;;
5841;SDS011;2947;52.276;9.946;2023-12-20T00:28:25;13.07;;;6.60;;
5841;SDS011;2947;52.276;9.946;2023-12-20T00:30:51;10.00;;;6.30;;
5841;SDS011;2947;52.276;9.946;2023-12-20T00:33:16;11.73;;;5.50;;
5841;SDS011;2947;52.276;9.946;2023-12-20T00:35:42;14.00;;;4.67;;
5841;SDS011;2947;52.276;9.946;2023-12-20T00:38:08;10.93;;;5.10;;
5841;SDS011;2947;52.276;9.946;2023-12-20T00:40:35;12.40;;;5.33;;
5841;SDS011;2947;52.276;9.946;2023-12-20T00:43:00;9.20;;;5.10;;
5841;SDS011;2947;52.276;9.946;2023-12-20T00:45:26;8.33;;;5.23;;
5841;SDS011;2947;52.276;9.946;2023-12-20T00:47:51;10.83;;;4.87;;
5841;SDS011;2947;52.276;9.946;2023-12-20T00:50:17;12.07;;;5.20;;
5841;SDS011;2947;52.276;9.946;2023-12-20T00:52:43;10.57;;;5.20;;
5841;SDS011;2947;52.276;9.946;2023-12-20T00:55:09;15.20;;;5.37;;
5841;SDS011;2947;52.276;9.946;2023-12-20T00:57:35;14.47;;;4.43;;
5841;SDS011;2947;52.276;9.946;2023-12-20T01:00:00;11.17;;;5.67;;
5841;SDS011;2947;52.276;9.946;2023-12-20T01:02:26;11.50;;;4.37;;
5841;SDS011;2947;52.276;9.946;2023-12-20T01:04:52;12.70;;;3.13;;
5841;SDS011;2947;52.276;9.946;2023-12-20T01:07:18;13.17;;;3.53;;
5841;SDS011;2947;52.276;9.946;2023-12-20T01:09:43;6.13;;;2.90;;
5841;SDS011;2947;52.276;9.946;2023-12-20T01:12:09;10.70;;;2.83;;
5841;SDS011;2947;52.276;9.946;2023-12-20T01:14:35;15.47;;;3.43;;
5841;SDS011;2947;52.276;9.946;2023-12-20T01:17:01;16.13;;;2.80;;
5841;SDS011;2947;52.276;9.946;2023-12-20T01:19:27;7.50;;;3.20;;
5841;SDS011;2947;52.276;9.946;2023-12-20T01:21:53;14.03;;;3.93;;
5841;SDS011;2947;52.276;9.946;2023-12-20T01:24:19;13.67;;;3.30;;
5841;SDS011;2947;52.276;9.946;2023-12-20T01:26:44;12.93;;;2.57;;
5841;SDS011;2947;52.276;9.946;2023-12-20T01:29:10;13.90;;;4.50;;
5841;SDS011;2947;52.276;9.946;2023-12-20T01:31:36;7.40;;;2.90;;
5841;SDS011;2947;52.276;9.946;2023-12-20T01:34:01;8.97;;;2.93;;
5841;SDS011;2947;52.276;9.946;2023-12-20T01:36:28;8.03;;;2.87;;
5841;SDS011;2947;52.276;9.946;2023-12-20T01:38:54;16.50;;;3.17;;
5841;SDS011;2947;52.276;9.946;2023-12-20T01:41:19;16.93;;;3.10;;
5841;SDS011;2947;52.276;9.946;2023-12-20T01:43:45;10.73;;;3.40;;
5841;SDS011;2947;52.276;9.946;2023-12-20T01:46:11;9.90;;;2.53;;
5841;SDS011;2947;52.276;9.946;2023-12-20T01:48:37;15.97;;;4.20;;
5841;SDS011;2947;52.276;9.946;2023-12-20T01:51:03;10.67;;;2.40;;
5841;SDS011;2947;52.276;9.946;2023-12-20T01:53:30;22.87;;;2.93;;
5841;SDS011;2947;52.276;9.946;2023-12-20T01:55:57;15.53;;;3.37;;
5841;SDS011;2947;52.276;9.946;2023-12-20T01:58:24;10.27;;;2.43;;
5841;SDS011;2947;52.276;9.946;2023-12-20T02:06:02;12.07;;;2.47;;
5841;SDS011;2947;52.276;9.946;2023-12-20T02:08:30;18.03;;;1.87;;
5841;SDS011;2947;52.276;9.946;2023-12-20T02:10:55;10.60;;;1.90;;
5841;SDS011;2947;52.276;9.946;2023-12-20T02:13:21;4.77;;;1.80;;
5841;SDS011;2947;52.276;9.946;2023-12-20T02:15:49;7.47;;;1.87;;
5841;SDS011;2947;52.276;9.946;2023-12-20T02:18:19;11.03;;;1.90;;
5841;SDS011;2947;52.276;9.946;2023-12-20T02:20:44;5.60;;;2.00;;
5841;SDS011;2947;52.276;9.946;2023-12-20T02:23:10;12.70;;;1.83;;
5841;SDS011;2947;52.276;9.946;2023-12-20T02:25:36;11.20;;;1.57;;
5841;SDS011;2947;52.276;9.946;2023-12-20T02:28:02;7.50;;;1.60;;
5841;SDS011;2947;52.276;9.946;2023-12-20T02:30:30;12.00;;;1.93;;
5841;SDS011;2947;52.276;9.946;2023-12-20T02:32:55;7.50;;;1.67;;
5841;SDS011;2947;52.276;9.946;2023-12-20T02:35:21;9.80;;;1.73;;
5841;SDS011;2947;52.276;9.946;2023-12-20T02:37:50;17.70;;;1.80;;
5841;SDS011;2947;52.276;9.946;2023-12-20T02:40:15;8.77;;;1.90;;
5841;SDS011;2947;52.276;9.946;2023-12-20T02:42:41;7.67;;;2.00;;
5841;SDS011;2947;52.276;9.946;2023-12-20T02:45:07;10.43;;;1.80;;
5841;SDS011;2947;52.276;9.946;2023-12-20T02:47:33;19.47;;;1.87;;
5841;SDS011;2947;52.276;9.946;2023-12-20T02:49:59;5.03;;;1.60;;
5841;SDS011;2947;52.276;9.946;2023-12-20T02:52:25;13.63;;;1.50;;
5841;SDS011;2947;52.276;9.946;2023-12-20T02:54:53;8.67;;;1.70;;
5841;SDS011;2947;52.276;9.946;2023-12-20T02:57:18;7.40;;;1.70;;
5841;SDS011;2947;52.276;9.946;2023-12-20T02:59:44;8.93;;;2.13;;
5841;SDS011;2947;52.276;9.946;2023-12-20T03:02:10;8.67;;;2.00;;
5841;SDS011;2947;52.276;9.946;2023-12-20T03:04:35;8.27;;;1.30;;
5841;SDS011;2947;52.276;9.946;2023-12-20T03:07:01;5.07;;;1.60;;
5841;SDS011;2947;52.276;9.946;2023-12-20T03:09:27;13.23;;;1.87;;
5841;SDS011;2947;52.276;9.946;2023-12-20T03:11:52;9.67;;;1.70;;
5841;SDS011;2947;52.276;9.946;2023-12-20T03:14:18;11.73;;;1.80;;
5841;SDS011;2947;52.276;9.946;2023-12-20T03:16:49;11.30;;;1.83;;
5841;SDS011;2947;52.276;9.946;2023-12-20T03:19:16;10.67;;;2.33;;
5841;SDS011;2947;52.276;9.946;2023-12-20T03:21:43;6.70;;;1.50;;
5841;SDS011;2947;52.276;9.946;2023-12-20T03:24:08;8.67;;;1.70;;
5841;SDS011;2947;52.276;9.946;2023-12-20T03:26:34;4.47;;;1.20;;
5841;SDS011;2947;52.276;9.946;2023-12-20T03:29:00;11.83;;;2.23;;
5841;SDS011;2947;52.276;9.946;2023-12-20T03:31:25;6.43;;;1.50;;
5841;SDS011;2947;52.276;9.946;2023-12-20T03:33:51;11.77;;;1.80;;
5841;SDS011;2947;52.276;9.946;2023-12-20T03:36:18;10.90;;;1.90;;
5841;SDS011;2947;52.276;9.946;2023-12-20T03:38:45;3.43;;;1.50;;
5841;SDS011;2947;52.276;9.946;2023-12-20T03:41:10;5.27;;;1.40;;
5841;SDS011;2947;52.276;9.946;2023-12-20T03:43:36;7.33;;;1.50;;
5841;SDS011;2947;52.276;9.946;2023-12-20T03:46:02;5.87;;;1.10;;
5841;SDS011;2947;52.276;9.946;2023-12-20T03:48:29;11.57;;;1.97;;
5841;SDS011;2947;52.276;9.946;2023-12-20T03:50:56;12.57;;;1.30;;
5841;SDS011;2947;52.276;9.946;2023-12-20T03:53:22;5.43;;;1.50;;
5841;SDS011;2947;52.276;9.946;2023-12-20T03:55:48;11.43;;;2.23;;
5841;SDS011;2947;52.276;9.946;2023-12-20T03:58:13;9.80;;;1.67;;
5841;SDS011;2947;52.276;9.946;2023-12-20T04:00:39;10.20;;;1.60;;
5841;SDS011;2947;52.276;9.946;2023-12-20T04:03:05;4.30;;;1.30;;
5841;SDS011;2947;52.276;9.946;2023-12-20T04:05:31;5.83;;;1.33;;
5841;SDS011;2947;52.276;9.946;2023-12-20T04:07:56;10.33;;;1.70;;
5841;SDS011;2947;52.276;9.946;2023-12-20T04:10:22;10.37;;;2.07;;
5841;SDS011;2947;52.276;9.946;2023-12-20T04:12:48;8.27;;;1.70;;
5841;SDS011;2947;52.276;9.946;2023-12-20T04:15:14;8.50;;;2.10;;
5841;SDS011;2947;52.276;9.946;2023-12-20T04:17:39;7.43;;;1.60;;
5841;SDS011;2947;52.276;9.946;2023-12-20T04:20:05;6.17;;;2.07;;
5841;SDS011;2947;52.276;9.946;2023-12-20T04:22:32;9.23;;;1.50;;
5841;SDS011;2947;52.276;9.946;2023-12-20T04:24:58;7.33;;;1.57;;
5841;SDS011;2947;52.276;9.946;2023-12-20T04:27:23;7.33;;;2.07;;
5841;SDS011;2947;52.276;9.946;2023-12-20T04:29:49;11.40;;;1.90;;
5841;SDS011;2947;52.276;9.946;2023-12-20T04:32:14;6.73;;;1.67;;
5841;SDS011;2947;52.276;9.946;2023-12-20T04:34:40;7.13;;;2.73;;
5841;SDS011;2947;52.276;9.946;2023-12-20T04:37:06;6.90;;;1.60;;
5841;SDS011;2947;52.276;9.946;2023-12-20T04:39:31;12.43;;;1.70;;
5841;SDS011;2947;52.276;9.946;2023-12-20T04:41:58;6.40;;;1.70;;
5841;SDS011;2947;52.276;9.946;2023-12-20T04:44:23;13.87;;;2.53;;
5841;SDS011;2947;52.276;9.946;2023-12-20T04:46:49;7.37;;;2.03;;
5841;SDS011;2947;52.276;9.946;2023-12-20T04:49:15;8.37;;;1.77;;
5841;SDS011;2947;52.276;9.946;2023-12-20T04:51:40;14.07;;;2.13;;
5841;SDS011;2947;52.276;9.946;2023-12-20T04:54:06;12.00;;;1.90;;
5841;SDS011;2947;52.276;9.946;2023-12-20T04:56:32;13.70;;;2.10;;
5841;SDS011;2947;52.276;9.946;2023-12-20T04:58:58;14.83;;;2.73;;
5841;SDS011;2947;52.276;9.946;2023-12-20T05:01:23;6.73;;;1.97;;
5841;SDS011;2947;52.276;9.946;2023-12-20T05:03:49;16.90;;;2.43;;
5841;SDS011;2947;52.276;9.946;2023-12-20T05:06:15;18.10;;;2.43;;
5841;SDS011;2947;52.276;9.946;2023-12-20T05:08:40;7.10;;;2.27;;
5841;SDS011;2947;52.276;9.946;2023-12-20T05:11:06;10.37;;;1.93;;
5841;SDS011;2947;52.276;9.946;2023-12-20T05:13:32;6.60;;;2.17;;
5841;SDS011;2947;52.276;9.946;2023-12-20T05:15:57;17.43;;;2.90;;
5841;SDS011;2947;52.276;9.946;2023-12-20T05:18:23;11.47;;;2.17;;
5841;SDS011;2947;52.276;9.946;2023-12-20T05:20:49;12.23;;;2.13;;
5841;SDS011;2947;52.276;9.946;2023-12-20T05:23:16;6.70;;;1.90;;
5841;SDS011;2947;52.276;9.946;2023-12-20T05:25:42;11.37;;;1.80;;
5841;SDS011;2947;52.276;9.946;2023-12-20T05:28:08;10.20;;;2.30;;
5841;SDS011;2947;52.276;9.946;2023-12-20T05:30:33;11.10;;;1.80;;
5841;SDS011;2947;52.276;9.946;2023-12-20T05:32:59;10.10;;;2.27;;
5841;SDS011;2947;52.276;9.946;2023-12-20T05:35:25;13.13;;;2.43;;
5841;SDS011;2947;52.276;9.946;2023-12-20T05:37:51;12.33;;;2.53;;
5841;SDS011;2947;52.276;9.946;2023-12-20T05:40:17;12.20;;;2.30;;
5841;SDS011;2947;52.276;9.946;2023-12-20T05:42:43;12.63;;;2.47;;
5841;SDS011;2947;52.276;9.946;2023-12-20T05:45:09;24.93;;;2.17;;
5841;SDS011;2947;52.276;9.946;2023-12-20T05:47:35;10.90;;;2.50;;
5841;SDS011;2947;52.276;9.946;2023-12-20T05:50:01;10.33;;;2.00;;
5841;SDS011;2947;52.276;9.946;2023-12-20T05:52:29;9.87;;;2.30;;
5841;SDS011;2947;52.276;9.946;2023-12-20T05:54:54;16.60;;;3.00;;
5841;SDS011;2947;52.276;9.946;2023-12-20T05:57:23;21.00;;;2.47;;
5841;SDS011;2947;52.276;9.946;2023-12-20T05:59:48;12.93;;;2.60;;
5841;SDS011;2947;52.276;9.946;2023-12-20T06:02:14;14.70;;;2.30;;
5841;SDS011;2947;52.276;9.946;2023-12-20T06:04:41;16.70;;;3.10;;
5841;SDS011;2947;52.276;9.946;2023-12-20T06:07:08;7.13;;;2.37;;
5841;SDS011;2947;52.276;9.946;2023-12-20T06:09:37;17.17;;;2.40;;
5841;SDS011;2947;52.276;9.946;2023-12-20T06:12:04;12.60;;;2.60;;
5841;SDS011;2947;52.276;9.946;2023-12-20T06:14:32;13.17;;;2.20;;
5841;SDS011;2947;52.276;9.946;2023-12-20T06:16:57;14.50;;;2.83;;
5841;SDS011;2947;52.276;9.946;2023-12-20T06:19:23;11.83;;;2.70;;
5841;SDS011;2947;52.276;9.946;2023-12-20T06:21:49;5.97;;;2.17;;
5841;SDS011;2947;52.276;9.946;2023-12-20T06:24:14;15.00;;;2.47;;
5841;SDS011;2947;52.276;9.946;2023-12-20T06:26:40;4.60;;;1.70;;
5841;SDS011;2947;52.276;9.946;2023-12-20T06:29:06;8.47;;;2.20;;
5841;SDS011;2947;52.276;9.946;2023-12-20T06:31:32;15.33;;;2.67;;
5841;SDS011;2947;52.276;9.946;2023-12-20T06:33:58;14.47;;;2.83;;
5841;SDS011;2947;52.276;9.946;2023-12-20T06:36:25;8.97;;;1.90;;
5841;SDS011;2947;52.276;9.946;2023-12-20T06:38:53;8.63;;;2.57;;
5841;SDS011;2947;52.276;9.946;2023-12-20T06:41:19;16.80;;;3.60;;
5841;SDS011;2947;52.276;9.946;2023-12-20T06:43:45;14.50;;;2.63;;
5841;SDS011;2947;52.276;9.946;2023-12-20T06:46:11;17.40;;;2.80;;
5841;SDS011;2947;52.276;9.946;2023-12-20T06:48:38;14.60;;;3.50;;
5841;SDS011;2947;52.276;9.946;2023-12-20T06:51:04;16.53;;;3.90;;
5841;SDS011;2947;52.276;9.946;2023-12-20T06:53:30;16.50;;;2.83;;
5841;SDS011;2947;52.276;9.946;2023-12-20T06:55:56;18.83;;;2.70;;
5841;SDS011;2947;52.276;9.946;2023-12-20T06:58:22;8.57;;;2.70;;
5841;SDS011;2947;52.276;9.946;2023-12-20T07:00:48;13.13;;;2.73;;
5841;SDS011;2947;52.276;9.946;2023-12-20T07:03:15;11.87;;;2.40;;
5841;SDS011;2947;52.276;9.946;2023-12-20T07:05:41;9.63;;;2.30;;
5841;SDS011;2947;52.276;9.946;2023-12-20T07:08:07;14.20;;;3.27;;
5841;SDS011;2947;52.276;9.946;2023-12-20T07:10:32;11.90;;;2.40;;
5841;SDS011;2947;52.276;9.946;2023-12-20T07:12:58;12.17;;;3.07;;
5841;SDS011;2947;52.276;9.946;2023-12-20T07:15:24;9.10;;;2.33;;
5841;SDS011;2947;52.276;9.946;2023-12-20T07:17:49;14.93;;;2.50;;
5841;SDS011;2947;52.276;9.946;2023-12-20T07:20:15;16.43;;;3.50;;
5841;SDS011;2947;52.276;9.946;2023-12-20T07:22:41;7.17;;;2.50;;
5841;SDS011;2947;52.276;9.946;2023-12-20T07:25:07;17.00;;;3.23;;
5841;SDS011;2947;52.276;9.946;2023-12-20T07:27:34;17.33;;;2.80;;
5841;SDS011;2947;52.276;9.946;2023-12-20T07:30:00;13.73;;;2.77;;
5841;SDS011;2947;52.276;9.946;2023-12-20T07:32:25;13.97;;;2.90;;
5841;SDS011;2947;52.276;9.946;2023-12-20T07:34:51;13.40;;;2.57;;
5841;SDS011;2947;52.276;9.946;2023-12-20T07:37:18;12.40;;;2.83;;
5841;SDS011;2947;52.276;9.946;2023-12-20T07:39:44;23.70;;;4.07;;
5841;SDS011;2947;52.276;9.946;2023-12-20T07:42:09;10.43;;;2.50;;
5841;SDS011;2947;52.276;9.946;2023-12-20T07:44:35;16.40;;;3.17;;
5841;SDS011;2947;52.276;9.946;2023-12-20T07:47:01;20.57;;;3.17;;
5841;SDS011;2947;52.276;9.946;2023-12-20T07:49:27;10.53;;;3.17;;
5841;SDS011;2947;52.276;9.946;2023-12-20T07:51:53;15.33;;;3.40;;
5841;SDS011;2947;52.276;9.946;2023-12-20T07:54:19;11.90;;;3.20;;
5841;SDS011;2947;52.276;9.946;2023-12-20T07:56:46;13.27;;;2.90;;
5841;SDS011;2947;52.276;9.946;2023-12-20T07:59:11;11.07;;;2.33;;
5841;SDS011;2947;52.276;9.946;2023-12-20T08:01:37;10.87;;;2.83;;
5841;SDS011;2947;52.276;9.946;2023-12-20T08:04:03;11.97;;;2.70;;
5841;SDS011;2947;52.276;9.946;2023-12-20T08:06:29;13.63;;;2.60;;
5841;SDS011;2947;52.276;9.946;2023-12-20T08:08:54;20.63;;;3.23;;
5841;SDS011;2947;52.276;9.946;2023-12-20T08:11:20;11.07;;;2.50;;
5841;SDS011;2947;52.276;9.946;2023-12-20T08:13:46;18.07;;;2.37;;
5841;SDS011;2947;52.276;9.946;2023-12-20T08:16:12;20.73;;;2.80;;
5841;SDS011;2947;52.276;9.946;2023-12-20T08:18:38;14.00;;;2.97;;
5841;SDS011;2947;52.276;9.946;2023-12-20T08:21:04;16.40;;;3.70;;
5841;SDS011;2947;52.276;9.946;2023-12-20T08:23:33;21.57;;;3.37;;
5841;SDS011;2947;52.276;9.946;2023-12-20T08:26:08;15.70;;;3.03;;
5841;SDS011;2947;52.276;9.946;2023-12-20T08:28:34;9.57;;;2.90;;
5841;SDS011;2947;52.276;9.946;2023-12-20T08:31:02;19.27;;;3.30;;
5841;SDS011;2947;52.276;9.946;2023-12-20T08:33:29;10.10;;;3.10;;
5841;SDS011;2947;52.276;9.946;2023-12-20T08:35:54;12.10;;;2.77;;
5841;SDS011;2947;52.276;9.946;2023-12-20T08:38:20;16.67;;;3.70;;
5841;SDS011;2947;52.276;9.946;2023-12-20T08:40:46;13.73;;;2.60;;
5841;SDS011;2947;52.276;9.946;2023-12-20T08:43:12;13.87;;;3.10;;
5841;SDS011;2947;52.276;9.946;2023-12-20T08:45:37;17.93;;;3.33;;
5841;SDS011;2947;52.276;9.946;2023-12-20T08:48:04;11.43;;;2.80;;
5841;SDS011;2947;52.276;9.946;2023-12-20T08:50:30;10.27;;;2.60;;
5841;SDS011;2947;52.276;9.946;2023-12-20T08:52:56;8.17;;;2.80;;
5841;SDS011;2947;52.276;9.946;2023-12-20T08:55:21;11.73;;;3.43;;
5841;SDS011;2947;52.276;9.946;2023-12-20T08:57:47;9.03;;;3.37;;
5841;SDS011;2947;52.276;9.946;2023-12-20T09:00:14;10.80;;;3.13;;
5841;SDS011;2947;52.276;9.946;2023-12-20T09:02:40;14.83;;;4.23;;
5841;SDS011;2947;52.276;9.946;2023-12-20T09:05:08;16.23;;;2.87;;
5841;SDS011;2947;52.276;9.946;2023-12-20T09:07:33;10.13;;;2.87;;
5841;SDS011;2947;52.276;9.946;2023-12-20T09:10:00;19.03;;;4.17;;
5841;SDS011;2947;52.276;9.946;2023-12-20T09:12:25;14.93;;;4.13;;
5841;SDS011;2947;52.276;9.946;2023-12-20T09:14:52;13.70;;;3.37;;
5841;SDS011;2947;52.276;9.946;2023-12-20T09:17:18;11.87;;;3.07;;
5841;SDS011;2947;52.276;9.946;2023-12-20T09:19:44;14.83;;;3.23;;
5841;SDS011;2947;52.276;9.946;2023-12-20T09:22:10;13.70;;;3.17;;
5841;SDS011;2947;52.276;9.946;2023-12-20T09:24:37;12.00;;;2.97;;
5841;SDS011;2947;52.276;9.946;2023-12-20T09:27:03;13.20;;;2.77;;
5841;SDS011;2947;52.276;9.946;2023-12-20T09:29:31;16.13;;;2.87;;
5841;SDS011;2947;52.276;9.946;2023-12-20T09:31:56;13.83;;;2.83;;
5841;SDS011;2947;52.276;9.946;2023-12-20T09:34:22;6.60;;;2.30;;
5841;SDS011;2947;52.276;9.946;2023-12-20T09:36:49;10.60;;;2.77;;
5841;SDS011;2947;52.276;9.946;2023-12-20T09:39:15;12.57;;;2.83;;
5841;SDS011;2947;52.276;9.946;2023-12-20T09:42:01;21.67;;;2.83;;
5841;SDS011;2947;52.276;9.946;2023-12-20T09:44:32;16.77;;;3.07;;
5841;SDS011;2947;52.276;9.946;2023-12-20T09:47:06;6.27;;;2.47;;
5841;SDS011;2947;52.276;9.946;2023-12-20T09:49:32;9.30;;;2.30;;
5841;SDS011;2947;52.276;9.946;2023-12-20T09:52:00;13.67;;;2.63;;
5841;SDS011;2947;52.276;9.946;2023-12-20T09:54:26;17.93;;;3.00;;
5841;SDS011;2947;52.276;9.946;2023-12-20T09:56:54;12.60;;;2.70;;
5841;SDS011;2947;52.276;9.946;2023-12-20T09:59:20;13.17;;;2.63;;
5841;SDS011;2947;52.276;9.946;2023-12-20T10:01:45;14.03;;;3.03;;
5841;SDS011;2947;52.276;9.946;2023-12-20T10:04:13;10.00;;;2.57;;
5841;SDS011;2947;52.276;9.946;2023-12-20T10:06:42;18.37;;;2.50;;
5841;SDS011;2947;52.276;9.946;2023-12-20T10:09:09;10.20;;;2.83;;
5841;SDS011;2947;52.276;9.946;2023-12-20T10:11:36;19.67;;;2.80;;
5841;SDS011;2947;52.276;9.946;2023-12-20T10:14:04;21.70;;;2.90;;
5841;SDS011;2947;52.276;9.946;2023-12-20T10:16:31;11.00;;;2.53;;
5841;SDS011;2947;52.276;9.946;2023-12-20T10:18:58;13.13;;;2.47;;
5841;SDS011;2947;52.276;9.946;2023-12-20T10:21:29;10.47;;;2.80;;
5841;SDS011;2947;52.276;9.946;2023-12-20T10:23:55;9.63;;;2.73;;
5841;SDS011;2947;52.276;9.946;2023-12-20T10:26:22;10.73;;;2.53;;
5841;SDS011;2947;52.276;9.946;2023-12-20T10:28:59;12.83;;;2.30;;
5841;SDS011;2947;52.276;9.946;2023-12-20T10:33:59;13.20;;;3.10;;
5841;SDS011;2947;52.276;9.946;2023-12-20T10:36:27;15.00;;;3.03;;
5841;SDS011;2947;52.276;9.946;2023-12-20T10:38:58;7.27;;;2.23;;
5841;SDS011;2947;52.276;9.946;2023-12-20T10:41:25;11.87;;;2.97;;
5841;SDS011;2947;52.276;9.946;2023-12-20T10:43:58;15.33;;;2.97;;
5841;SDS011;2947;52.276;9.946;2023-12-20T10:46:32;9.03;;;2.50;;
5841;SDS011;2947;52.276;9.946;2023-12-20T10:49:02;11.70;;;2.80;;
5841;SDS011;2947;52.276;9.946;2023-12-20T10:51:30;11.00;;;2.80;;
5841;SDS011;2947;52.276;9.946;2023-12-20T10:53:56;13.63;;;3.27;;
5841;SDS011;2947;52.276;9.946;2023-12-20T10:56:22;13.57;;;3.27;;
5841;SDS011;2947;52.276;9.946;2023-12-20T10:58:49;5.53;;;2.37;;
5841;SDS011;2947;52.276;9.946;2023-12-20T11:01:16;12.20;;;2.70;;
5841;SDS011;2947;52.276;9.946;2023-12-20T11:06:27;11.97;;;3.73;;
5841;SDS011;2947;52.276;9.946;2023-12-20T11:14:48;7.20;;;2.47;;
5841;SDS011;2947;52.276;9.946;2023-12-20T11:17:17;13.70;;;3.20;;
5841;SDS011;2947;52.276;9.946;2023-12-20T11:22:21;15.63;;;3.27;;
5841;SDS011;2947;52.276;9.946;2023-12-20T11:24:49;6.37;;;2.73;;
5841;SDS011;2947;52.276;9.946;2023-12-20T11:27:17;16.20;;;3.37;;
5841;SDS011;2947;52.276;9.946;2023-12-20T11:29:51;14.60;;;3.13;;
5841;SDS011;2947;52.276;9.946;2023-12-20T11:32:28;8.20;;;3.47;;
5841;SDS011;2947;52.276;9.946;2023-12-20T11:37:38;10.40;;;3.50;;
5841;SDS011;2947;52.276;9.946;2023-12-20T11:40:08;10.13;;;3.93;;
5841;SDS011;2947;52.276;9.946;2023-12-20T11:42:40;9.27;;;2.80;;
5841;SDS011;2947;52.276;9.946;2023-12-20T11:45:19;8.43;;;2.40;;
5841;SDS011;2947;52.276;9.946;2023-12-20T11:47:47;8.80;;;3.70;;
5841;SDS011;2947;52.276;9.946;2023-12-20T11:50:15;11.60;;;3.03;;
5841;SDS011;2947;52.276;9.946;2023-12-20T11:52:42;10.00;;;2.73;;
5841;SDS011;2947;52.276;9.946;2023-12-20T11:55:08;16.83;;;2.87;;
5841;SDS011;2947;52.276;9.946;2023-12-20T11:57:35;8.10;;;2.63;;
5841;SDS011;2947;52.276;9.946;2023-12-20T12:00:01;15.10;;;2.53;;
5841;SDS011;2947;52.276;9.946;2023-12-20T12:02:32;8.23;;;2.50;;
5841;SDS011;2947;52.276;9.946;2023-12-20T12:04:59;7.20;;;2.70;;
5841;SDS011;2947;52.276;9.946;2023-12-20T12:07:24;6.63;;;1.90;;
5841;SDS011;2947;52.276;9.946;2023-12-20T12:09:51;3.37;;;1.47;;
5841;SDS011;2947;52.276;9.946;2023-12-20T12:12:17;5.77;;;1.23;;
5841;SDS011;2947;52.276;9.946;2023-12-20T12:15:01;6.63;;;1.50;;
5841;SDS011;2947;52.276;9.946;2023-12-20T12:17:27;5.77;;;1.30;;
5841;SDS011;2947;52.276;9.946;2023-12-20T12:20:01;7.77;;;1.10;;
5841;SDS011;2947;52.276;9.946;2023-12-20T12:22:31;5.07;;;0.90;;
5841;SDS011;2947;52.276;9.946;2023-12-20T12:24:58;3.67;;;0.60;;
5841;SDS011;2947;52.276;9.946;2023-12-20T12:27:35;3.83;;;0.90;;
5841;SDS011;2947;52.276;9.946;2023-12-20T12:30:04;3.70;;;1.20;;
5841;SDS011;2947;52.276;9.946;2023-12-20T12:32:34;5.03;;;0.97;;
5841;SDS011;2947;52.276;9.946;2023-12-20T12:35:07;4.13;;;1.20;;
5841;SDS011;2947;52.276;9.946;2023-12-20T12:37:35;2.90;;;0.70;;
5841;SDS011;2947;52.276;9.946;2023-12-20T12:40:11;3.00;;;0.87;;
5841;SDS011;2947;52.276;9.946;2023-12-20T12:42:39;3.50;;;0.87;;
5841;SDS011;2947;52.276;9.946;2023-12-20T12:45:06;1.97;;;0.83;;
5841;SDS011;2947;52.276;9.946;2023-12-20T12:47:33;7.27;;;1.07;;
5841;SDS011;2947;52.276;9.946;2023-12-20T12:49:59;5.63;;;0.90;;
5841;SDS011;2947;52.276;9.946;2023-12-20T12:52:25;2.73;;;0.73;;
5841;SDS011;2947;52.276;9.946;2023-12-20T12:54:52;6.00;;;1.03;;
5841;SDS011;2947;52.276;9.946;2023-12-20T12:57:18;6.50;;;0.70;;
5841;SDS011;2947;52.276;9.946;2023-12-20T12:59:44;3.17;;;1.00;;
5841;SDS011;2947;52.276;9.946;2023-12-20T13:02:14;4.50;;;0.80;;
5841;SDS011;2947;52.276;9.946;2023-12-20T13:04:40;6.57;;;1.10;;
5841;SDS011;2947;52.276;9.946;2023-12-20T13:07:07;5.33;;;1.20;;
5841;SDS011;2947;52.276;9.946;2023-12-20T13:09:35;4.80;;;0.80;;
5841;SDS011;2947;52.276;9.946;2023-12-20T13:12:01;6.03;;;0.97;;
5841;SDS011;2947;52.276;9.946;2023-12-20T13:14:29;2.90;;;0.97;;
5841;SDS011;2947;52.276;9.946;2023-12-20T13:16:58;5.97;;;1.40;;
5841;SDS011;2947;52.276;9.946;2023-12-20T13:19:24;4.33;;;0.80;;
5841;SDS011;2947;52.276;9.946;2023-12-20T13:21:49;3.83;;;1.00;;
5841;SDS011;2947;52.276;9.946;2023-12-20T13:24:15;6.30;;;1.20;;
5841;SDS011;2947;52.276;9.946;2023-12-20T13:26:41;6.00;;;1.30;;
5841;SDS011;2947;52.276;9.946;2023-12-20T13:29:06;4.80;;;0.93;;
5841;SDS011;2947;52.276;9.946;2023-12-20T13:31:32;3.80;;;1.00;;
5841;SDS011;2947;52.276;9.946;2023-12-20T13:33:58;3.57;;;1.00;;
5841;SDS011;2947;52.276;9.946;2023-12-20T13:36:23;2.67;;;0.60;;
5841;SDS011;2947;52.276;9.946;2023-12-20T13:38:49;3.27;;;0.90;;
5841;SDS011;2947;52.276;9.946;2023-12-20T13:41:15;7.53;;;0.90;;
5841;SDS011;2947;52.276;9.946;2023-12-20T13:43:41;3.60;;;1.10;;
5841;SDS011;2947;52.276;9.946;2023-12-20T13:46:07;4.50;;;0.90;;
5841;SDS011;2947;52.276;9.946;2023-12-20T13:48:34;3.67;;;1.30;;
5841;SDS011;2947;52.276;9.946;2023-12-20T13:51:00;3.53;;;0.90;;
5841;SDS011;2947;52.276;9.946;2023-12-20T13:53:28;4.43;;;1.10;;
5841;SDS011;2947;52.276;9.946;2023-12-20T13:55:53;3.30;;;0.80;;
5841;SDS011;2947;52.276;9.946;2023-12-20T13:58:19;3.87;;;0.90;;
5841;SDS011;2947;52.276;9.946;2023-12-20T14:00:45;5.63;;;1.20;;
5841;SDS011;2947;52.276;9.946;2023-12-20T14:03:11;3.10;;;1.17;;
5841;SDS011;2947;52.276;9.946;2023-12-20T14:05:36;2.10;;;0.80;;
5841;SDS011;2947;52.276;9.946;2023-12-20T14:08:04;3.77;;;0.80;;
5841;SDS011;2947;52.276;9.946;2023-12-20T14:10:30;5.60;;;1.20;;
5841;SDS011;2947;52.276;9.946;2023-12-20T14:12:56;3.80;;;1.10;;
5841;SDS011;2947;52.276;9.946;2023-12-20T14:15:21;3.10;;;1.33;;
5841;SDS011;2947;52.276;9.946;2023-12-20T14:17:50;4.57;;;1.40;;
5841;SDS011;2947;52.276;9.946;2023-12-20T14:20:15;4.27;;;1.57;;
5841;SDS011;2947;52.276;9.946;2023-12-20T14:22:42;3.43;;;1.07;;
5841;SDS011;2947;52.276;9.946;2023-12-20T14:25:10;9.90;;;1.67;;
5841;SDS011;2947;52.276;9.946;2023-12-20T14:27:37;10.40;;;2.00;;
5841;SDS011;2947;52.276;9.946;2023-12-20T14:30:04;7.70;;;1.20;;
5841;SDS011;2947;52.276;9.946;2023-12-20T14:32:34;2.90;;;1.00;;
5841;SDS011;2947;52.276;9.946;2023-12-20T14:35:04;4.33;;;0.80;;
5841;SDS011;2947;52.276;9.946;2023-12-20T14:37:31;6.33;;;1.40;;
5841;SDS011;2947;52.276;9.946;2023-12-20T14:39:57;5.73;;;1.27;;
5841;SDS011;2947;52.276;9.946;2023-12-20T14:42:23;9.73;;;1.93;;
5841;SDS011;2947;52.276;9.946;2023-12-20T14:44:48;3.07;;;1.10;;
5841;SDS011;2947;52.276;9.946;2023-12-20T14:47:14;3.80;;;1.63;;
5841;SDS011;2947;52.276;9.946;2023-12-20T14:49:40;6.17;;;1.70;;
5841;SDS011;2947;52.276;9.946;2023-12-20T14:52:07;6.10;;;1.70;;
5841;SDS011;2947;52.276;9.946;2023-12-20T14:54:37;14.27;;;3.50;;
5841;SDS011;2947;52.276;9.946;2023-12-20T14:57:03;9.90;;;3.83;;
5841;SDS011;2947;52.276;9.946;2023-12-20T14:59:33;8.93;;;3.33;;
5841;SDS011;2947;52.276;9.946;2023-12-20T15:01:59;6.83;;;2.20;;
5841;SDS011;2947;52.276;9.946;2023-12-20T15:04:24;7.37;;;1.30;;
5841;SDS011;2947;52.276;9.946;2023-12-20T15:06:53;16.40;;;2.23;;
5841;SDS011;2947;52.276;9.946;2023-12-20T15:09:20;5.50;;;1.50;;
5841;SDS011;2947;52.276;9.946;2023-12-20T15:11:46;4.47;;;1.53;;
5841;SDS011;2947;52.276;9.946;2023-12-20T15:14:12;3.67;;;1.47;;
5841;SDS011;2947;52.276;9.946;2023-12-20T15:16:42;4.40;;;1.00;;
5841;SDS011;2947;52.276;9.946;2023-12-20T15:19:08;6.70;;;1.60;;
5841;SDS011;2947;52.276;9.946;2023-12-20T15:21:34;6.80;;;1.53;;
5841;SDS011;2947;52.276;9.946;2023-12-20T15:24:05;5.70;;;1.33;;
5841;SDS011;2947;52.276;9.946;2023-12-20T15:26:40;7.87;;;1.30;;